sensor_id;sensor_type;location;lat;lon;timestamp;P1;durP1;ratioP1;P2;durP2;ratioP2
5876;SDS011;2964;42.144;24.730;2023-05-10T00:00:24;6.07;;;5.53;;
5876;SDS011;2964;42.144;24.730;2023-05-10T00:02:51;7.00;;;6.30;;
5876;SDS011;2964;42.144;24.730;2023-05-10T00:05:18;6.73;;;6.17;;
5876;SDS011;2964;42.144;24.730;2023-05-10T00:07:46;5.93;;;5.43;;
5876;SDS011;2964;42.144;24.730;2023-05-10T00:10:13;7.00;;;6.40;;
5876;SDS011;2964;42.144;24.730;2023-05-10T00:12:39;11.00;;;6.37;;
5876;SDS011;2964;42.144;24.730;2023-05-10T00:15:07;6.70;;;6.10;;
5876;SDS011;2964;42.144;24.730;2023-05-10T00:17:34;6.93;;;6.43;;
5876;SDS011;2964;42.144;24.730;2023-05-10T00:20:01;6.63;;;6.13;;
5876;SDS011;2964;42.144;24.730;2023-05-10T00:22:30;7.40;;;6.90;;
5876;SDS011;2964;42.144;24.730;2023-05-10T00:24:58;6.80;;;6.30;;
5876;SDS011;2964;42.144;24.730;2023-05-10T00:27:24;7.33;;;6.63;;
5876;SDS011;2964;42.144;24.730;2023-05-10T00:29:51;7.83;;;7.30;;
5876;SDS011;2964;42.144;24.730;2023-05-10T00:32:18;9.27;;;7.73;;
5876;SDS011;2964;42.144;24.730;2023-05-10T00:34:45;7.77;;;7.07;;
5876;SDS011;2964;42.144;24.730;2023-05-10T00:37:12;7.87;;;7.27;;
5876;SDS011;2964;42.144;24.730;2023-05-10T00:39:38;10.77;;;7.10;;
5876;SDS011;2964;42.144;24.730;2023-05-10T00:42:06;9.93;;;7.30;;
5876;SDS011;2964;42.144;24.730;2023-05-10T00:44:33;6.20;;;5.90;;
5876;SDS011;2964;42.144;24.730;2023-05-10T00:47:00;7.20;;;6.60;;
5876;SDS011;2964;42.144;24.730;2023-05-10T00:49:26;8.20;;;7.47;;
5876;SDS011;2964;42.144;24.730;2023-05-10T00:51:54;11.60;;;7.40;;
5876;SDS011;2964;42.144;24.730;2023-05-10T00:54:21;8.00;;;7.30;;
5876;SDS011;2964;42.144;24.730;2023-05-10T00:56:48;9.13;;;8.37;;
5876;SDS011;2964;42.144;24.730;2023-05-10T00:59:16;8.33;;;7.33;;
5876;SDS011;2964;42.144;24.730;2023-05-10T01:01:43;7.83;;;7.23;;
5876;SDS011;2964;42.144;24.730;2023-05-10T01:04:10;7.50;;;6.87;;
5876;SDS011;2964;42.144;24.730;2023-05-10T01:06:38;9.03;;;8.20;;
5876;SDS011;2964;42.144;24.730;2023-05-10T01:09:04;7.40;;;6.70;;
5876;SDS011;2964;42.144;24.730;2023-05-10T01:11:31;9.83;;;8.40;;
5876;SDS011;2964;42.144;24.730;2023-05-10T01:13:58;6.97;;;6.40;;
5876;SDS011;2964;42.144;24.730;2023-05-10T01:16:26;10.47;;;7.87;;
5876;SDS011;2964;42.144;24.730;2023-05-10T01:18:55;9.97;;;8.93;;
5876;SDS011;2964;42.144;24.730;2023-05-10T01:21:23;9.00;;;8.20;;
5876;SDS011;2964;42.144;24.730;2023-05-10T01:27:31;9.63;;;8.43;;
5876;SDS011;2964;42.144;24.730;2023-05-10T01:30:19;9.63;;;8.93;;
5876;SDS011;2964;42.144;24.730;2023-05-10T01:33:07;9.37;;;8.40;;
5876;SDS011;2964;42.144;24.730;2023-05-10T01:35:42;10.93;;;9.57;;
5876;SDS011;2964;42.144;24.730;2023-05-10T01:38:15;9.43;;;8.67;;
5876;SDS011;2964;42.144;24.730;2023-05-10T01:40:48;9.83;;;9.13;;
5876;SDS011;2964;42.144;24.730;2023-05-10T01:43:28;11.63;;;9.73;;
5876;SDS011;2964;42.144;24.730;2023-05-10T01:45:59;11.73;;;10.03;;
5876;SDS011;2964;42.144;24.730;2023-05-10T01:48:36;10.80;;;9.70;;
5876;SDS011;2964;42.144;24.730;2023-05-10T01:51:08;12.03;;;9.63;;
5876;SDS011;2964;42.144;24.730;2023-05-10T01:53:36;11.53;;;10.37;;
5876;SDS011;2964;42.144;24.730;2023-05-10T01:56:05;10.93;;;9.93;;
5876;SDS011;2964;42.144;24.730;2023-05-10T01:58:35;10.67;;;9.60;;
5876;SDS011;2964;42.144;24.730;2023-05-10T02:01:07;15.87;;;11.13;;
5876;SDS011;2964;42.144;24.730;2023-05-10T02:03:37;10.87;;;9.80;;
5876;SDS011;2964;42.144;24.730;2023-05-10T02:06:06;9.93;;;9.07;;
5876;SDS011;2964;42.144;24.730;2023-05-10T02:08:35;11.40;;;10.40;;
5876;SDS011;2964;42.144;24.730;2023-05-10T02:11:02;13.17;;;10.80;;
5876;SDS011;2964;42.144;24.730;2023-05-10T02:13:30;10.83;;;9.93;;
5876;SDS011;2964;42.144;24.730;2023-05-10T02:15:59;11.10;;;10.17;;
5876;SDS011;2964;42.144;24.730;2023-05-10T02:18:29;11.97;;;9.93;;
5876;SDS011;2964;42.144;24.730;2023-05-10T02:20:59;11.93;;;10.73;;
5876;SDS011;2964;42.144;24.730;2023-05-10T02:23:27;14.00;;;9.77;;
5876;SDS011;2964;42.144;24.730;2023-05-10T02:25:55;9.63;;;8.93;;
5876;SDS011;2964;42.144;24.730;2023-05-10T02:28:23;13.00;;;10.40;;
5876;SDS011;2964;42.144;24.730;2023-05-10T02:30:51;11.23;;;10.23;;
5876;SDS011;2964;42.144;24.730;2023-05-10T02:33:18;10.33;;;9.53;;
5876;SDS011;2964;42.144;24.730;2023-05-10T02:35:46;13.53;;;10.17;;
5876;SDS011;2964;42.144;24.730;2023-05-10T02:38:14;11.03;;;9.93;;
5876;SDS011;2964;42.144;24.730;2023-05-10T02:40:42;12.80;;;10.50;;
5876;SDS011;2964;42.144;24.730;2023-05-10T02:43:09;14.03;;;9.53;;
5876;SDS011;2964;42.144;24.730;2023-05-10T02:45:40;12.40;;;10.23;;
5876;SDS011;2964;42.144;24.730;2023-05-10T02:48:09;10.30;;;9.37;;
5876;SDS011;2964;42.144;24.730;2023-05-10T02:50:36;15.40;;;10.93;;
5876;SDS011;2964;42.144;24.730;2023-05-10T02:53:06;10.20;;;9.20;;
5876;SDS011;2964;42.144;24.730;2023-05-10T02:55:40;13.90;;;10.30;;
5876;SDS011;2964;42.144;24.730;2023-05-10T02:58:09;11.87;;;10.57;;
5876;SDS011;2964;42.144;24.730;2023-05-10T03:00:35;11.00;;;10.00;;
5876;SDS011;2964;42.144;24.730;2023-05-10T03:03:02;11.03;;;10.13;;
5876;SDS011;2964;42.144;24.730;2023-05-10T03:05:29;10.07;;;9.07;;
5876;SDS011;2964;42.144;24.730;2023-05-10T03:07:55;10.57;;;9.50;;
5876;SDS011;2964;42.144;24.730;2023-05-10T03:10:23;10.03;;;9.13;;
5876;SDS011;2964;42.144;24.730;2023-05-10T03:13:00;11.70;;;10.13;;
5876;SDS011;2964;42.144;24.730;2023-05-10T03:15:37;11.83;;;10.40;;
5876;SDS011;2964;42.144;24.730;2023-05-10T03:18:15;11.43;;;10.27;;
5876;SDS011;2964;42.144;24.730;2023-05-10T03:20:46;10.93;;;9.93;;
5876;SDS011;2964;42.144;24.730;2023-05-10T03:23:18;14.53;;;10.10;;
5876;SDS011;2964;42.144;24.730;2023-05-10T03:25:49;11.37;;;10.27;;
5876;SDS011;2964;42.144;24.730;2023-05-10T03:28:18;14.80;;;11.07;;
5876;SDS011;2964;42.144;24.730;2023-05-10T03:30:46;10.60;;;9.63;;
5876;SDS011;2964;42.144;24.730;2023-05-10T03:33:13;11.80;;;10.77;;
5876;SDS011;2964;42.144;24.730;2023-05-10T03:35:40;11.50;;;9.97;;
5876;SDS011;2964;42.144;24.730;2023-05-10T03:38:07;10.93;;;9.87;;
5876;SDS011;2964;42.144;24.730;2023-05-10T03:40:33;10.77;;;9.73;;
5876;SDS011;2964;42.144;24.730;2023-05-10T03:43:00;10.83;;;9.83;;
5876;SDS011;2964;42.144;24.730;2023-05-10T03:45:28;11.50;;;10.37;;
5876;SDS011;2964;42.144;24.730;2023-05-10T03:47:55;10.10;;;9.30;;
5876;SDS011;2964;42.144;24.730;2023-05-10T03:50:23;11.93;;;10.23;;
5876;SDS011;2964;42.144;24.730;2023-05-10T03:52:50;12.07;;;10.53;;
5876;SDS011;2964;42.144;24.730;2023-05-10T03:55:16;10.77;;;9.23;;
5876;SDS011;2964;42.144;24.730;2023-05-10T03:57:43;12.50;;;9.73;;
5876;SDS011;2964;42.144;24.730;2023-05-10T04:00:10;9.93;;;9.07;;
5876;SDS011;2964;42.144;24.730;2023-05-10T04:02:38;11.67;;;10.03;;
5876;SDS011;2964;42.144;24.730;2023-05-10T04:05:05;14.97;;;9.40;;
5876;SDS011;2964;42.144;24.730;2023-05-10T04:07:32;11.87;;;10.20;;
5876;SDS011;2964;42.144;24.730;2023-05-10T04:09:59;11.43;;;9.40;;
5876;SDS011;2964;42.144;24.730;2023-05-10T04:12:26;11.17;;;10.10;;
5876;SDS011;2964;42.144;24.730;2023-05-10T04:14:52;9.60;;;8.80;;
5876;SDS011;2964;42.144;24.730;2023-05-10T04:17:19;10.77;;;9.77;;
5876;SDS011;2964;42.144;24.730;2023-05-10T04:19:47;10.43;;;9.43;;
5876;SDS011;2964;42.144;24.730;2023-05-10T04:22:14;10.73;;;9.63;;
5876;SDS011;2964;42.144;24.730;2023-05-10T04:24:41;11.63;;;9.57;;
5876;SDS011;2964;42.144;24.730;2023-05-10T04:27:07;11.53;;;10.30;;
5876;SDS011;2964;42.144;24.730;2023-05-10T04:29:34;11.83;;;9.97;;
5876;SDS011;2964;42.144;24.730;2023-05-10T04:32:01;10.33;;;9.53;;
5876;SDS011;2964;42.144;24.730;2023-05-10T04:34:28;10.33;;;8.73;;
5876;SDS011;2964;42.144;24.730;2023-05-10T04:36:56;11.37;;;10.23;;
5876;SDS011;2964;42.144;24.730;2023-05-10T04:39:23;10.70;;;9.70;;
5876;SDS011;2964;42.144;24.730;2023-05-10T04:41:52;16.33;;;10.50;;
5876;SDS011;2964;42.144;24.730;2023-05-10T04:44:18;10.83;;;9.60;;
5876;SDS011;2964;42.144;24.730;2023-05-10T04:46:45;12.30;;;9.73;;
5876;SDS011;2964;42.144;24.730;2023-05-10T04:49:12;12.77;;;10.13;;
5876;SDS011;2964;42.144;24.730;2023-05-10T04:51:39;13.33;;;9.40;;
5876;SDS011;2964;42.144;24.730;2023-05-10T04:54:07;11.00;;;10.10;;
5876;SDS011;2964;42.144;24.730;2023-05-10T04:56:34;13.70;;;10.00;;
5876;SDS011;2964;42.144;24.730;2023-05-10T04:59:00;10.97;;;10.03;;
5876;SDS011;2964;42.144;24.730;2023-05-10T05:01:27;10.23;;;9.20;;
5876;SDS011;2964;42.144;24.730;2023-05-10T05:03:54;10.00;;;9.03;;
5876;SDS011;2964;42.144;24.730;2023-05-10T05:06:21;10.53;;;8.70;;
5876;SDS011;2964;42.144;24.730;2023-05-10T05:08:47;15.20;;;9.27;;
5876;SDS011;2964;42.144;24.730;2023-05-10T05:11:16;9.63;;;8.83;;
5876;SDS011;2964;42.144;24.730;2023-05-10T05:13:43;16.27;;;7.90;;
5876;SDS011;2964;42.144;24.730;2023-05-10T05:16:10;10.50;;;9.07;;
5876;SDS011;2964;42.144;24.730;2023-05-10T05:18:36;10.07;;;8.43;;
5876;SDS011;2964;42.144;24.730;2023-05-10T05:21:03;9.00;;;8.13;;
5876;SDS011;2964;42.144;24.730;2023-05-10T05:23:39;10.40;;;8.67;;
5876;SDS011;2964;42.144;24.730;2023-05-10T05:26:06;9.87;;;8.87;;
5876;SDS011;2964;42.144;24.730;2023-05-10T05:28:34;17.90;;;9.93;;
5876;SDS011;2964;42.144;24.730;2023-05-10T05:31:02;11.47;;;10.30;;
5876;SDS011;2964;42.144;24.730;2023-05-10T05:33:29;10.40;;;9.27;;
5876;SDS011;2964;42.144;24.730;2023-05-10T05:35:55;8.53;;;7.93;;
5876;SDS011;2964;42.144;24.730;2023-05-10T05:38:22;10.97;;;9.53;;
5876;SDS011;2964;42.144;24.730;2023-05-10T05:40:49;9.50;;;8.57;;
5876;SDS011;2964;42.144;24.730;2023-05-10T05:43:15;9.93;;;9.03;;
5876;SDS011;2964;42.144;24.730;2023-05-10T05:45:43;9.10;;;8.17;;
5876;SDS011;2964;42.144;24.730;2023-05-10T05:48:10;8.60;;;7.87;;
5876;SDS011;2964;42.144;24.730;2023-05-10T05:50:36;9.03;;;8.37;;
5876;SDS011;2964;42.144;24.730;2023-05-10T05:53:03;11.13;;;10.10;;
5876;SDS011;2964;42.144;24.730;2023-05-10T05:55:30;10.90;;;8.47;;
5876;SDS011;2964;42.144;24.730;2023-05-10T05:57:57;9.70;;;9.13;;
5876;SDS011;2964;42.144;24.730;2023-05-10T06:00:23;10.50;;;9.40;;
5876;SDS011;2964;42.144;24.730;2023-05-10T06:02:52;10.93;;;9.87;;
5876;SDS011;2964;42.144;24.730;2023-05-10T06:05:18;12.90;;;11.23;;
5876;SDS011;2964;42.144;24.730;2023-05-10T06:07:45;11.43;;;10.27;;
5876;SDS011;2964;42.144;24.730;2023-05-10T06:10:12;10.90;;;9.00;;
5876;SDS011;2964;42.144;24.730;2023-05-10T06:12:39;8.87;;;8.27;;
5876;SDS011;2964;42.144;24.730;2023-05-10T06:15:06;9.63;;;8.93;;
5876;SDS011;2964;42.144;24.730;2023-05-10T06:17:33;9.90;;;9.03;;
5876;SDS011;2964;42.144;24.730;2023-05-10T06:20:01;9.13;;;8.33;;
5876;SDS011;2964;42.144;24.730;2023-05-10T06:22:28;8.93;;;8.10;;
5876;SDS011;2964;42.144;24.730;2023-05-10T06:24:55;17.07;;;9.43;;
5876;SDS011;2964;42.144;24.730;2023-05-10T06:27:21;15.57;;;9.83;;
5876;SDS011;2964;42.144;24.730;2023-05-10T06:29:48;12.83;;;9.17;;
5876;SDS011;2964;42.144;24.730;2023-05-10T06:32:15;9.00;;;8.10;;
5876;SDS011;2964;42.144;24.730;2023-05-10T06:34:42;10.80;;;8.53;;
5876;SDS011;2964;42.144;24.730;2023-05-10T06:37:11;9.07;;;8.20;;
5876;SDS011;2964;42.144;24.730;2023-05-10T06:39:37;8.67;;;7.83;;
5876;SDS011;2964;42.144;24.730;2023-05-10T06:42:04;9.60;;;7.20;;
5876;SDS011;2964;42.144;24.730;2023-05-10T06:44:31;9.17;;;7.57;;
5876;SDS011;2964;42.144;24.730;2023-05-10T06:46:57;10.93;;;8.17;;
5876;SDS011;2964;42.144;24.730;2023-05-10T06:49:24;9.70;;;7.70;;
5876;SDS011;2964;42.144;24.730;2023-05-10T06:51:51;12.07;;;7.97;;
5876;SDS011;2964;42.144;24.730;2023-05-10T06:54:19;7.23;;;6.50;;
5876;SDS011;2964;42.144;24.730;2023-05-10T06:56:45;9.00;;;7.77;;
5876;SDS011;2964;42.144;24.730;2023-05-10T06:59:12;13.37;;;7.97;;
5876;SDS011;2964;42.144;24.730;2023-05-10T07:01:40;8.80;;;7.97;;
5876;SDS011;2964;42.144;24.730;2023-05-10T07:04:06;7.97;;;7.20;;
5876;SDS011;2964;42.144;24.730;2023-05-10T07:06:33;11.30;;;9.27;;
5876;SDS011;2964;42.144;24.730;2023-05-10T07:09:01;8.20;;;7.57;;
5876;SDS011;2964;42.144;24.730;2023-05-10T07:11:29;11.27;;;7.30;;
5876;SDS011;2964;42.144;24.730;2023-05-10T07:13:55;8.63;;;7.83;;
5876;SDS011;2964;42.144;24.730;2023-05-10T07:16:22;13.37;;;7.93;;
5876;SDS011;2964;42.144;24.730;2023-05-10T07:18:49;7.93;;;7.40;;
5876;SDS011;2964;42.144;24.730;2023-05-10T07:21:18;9.33;;;7.23;;
5876;SDS011;2964;42.144;24.730;2023-05-10T07:23:45;8.00;;;7.40;;
5876;SDS011;2964;42.144;24.730;2023-05-10T07:26:11;8.63;;;8.03;;
5876;SDS011;2964;42.144;24.730;2023-05-10T07:28:41;9.67;;;8.00;;
5876;SDS011;2964;42.144;24.730;2023-05-10T07:31:08;9.93;;;7.33;;
5876;SDS011;2964;42.144;24.730;2023-05-10T07:33:34;7.93;;;7.37;;
5876;SDS011;2964;42.144;24.730;2023-05-10T07:36:01;11.90;;;7.63;;
5876;SDS011;2964;42.144;24.730;2023-05-10T07:38:28;7.77;;;7.17;;
5876;SDS011;2964;42.144;24.730;2023-05-10T07:40:54;6.83;;;6.17;;
5876;SDS011;2964;42.144;24.730;2023-05-10T07:43:21;10.00;;;7.30;;
5876;SDS011;2964;42.144;24.730;2023-05-10T07:45:49;11.57;;;7.00;;
5876;SDS011;2964;42.144;24.730;2023-05-10T07:48:16;6.60;;;6.07;;
5876;SDS011;2964;42.144;24.730;2023-05-10T07:50:43;7.70;;;7.00;;
5876;SDS011;2964;42.144;24.730;2023-05-10T07:53:10;8.60;;;7.27;;
5876;SDS011;2964;42.144;24.730;2023-05-10T07:55:36;10.60;;;7.20;;
5876;SDS011;2964;42.144;24.730;2023-05-10T07:58:03;7.50;;;7.03;;
5876;SDS011;2964;42.144;24.730;2023-05-10T08:00:30;10.40;;;6.90;;
5876;SDS011;2964;42.144;24.730;2023-05-10T08:02:58;8.10;;;7.13;;
5876;SDS011;2964;42.144;24.730;2023-05-10T08:05:24;7.77;;;6.67;;
5876;SDS011;2964;42.144;24.730;2023-05-10T08:07:51;8.03;;;7.40;;
5876;SDS011;2964;42.144;24.730;2023-05-10T08:10:18;8.20;;;7.50;;
5876;SDS011;2964;42.144;24.730;2023-05-10T08:12:45;6.93;;;6.27;;
5876;SDS011;2964;42.144;24.730;2023-05-10T08:15:11;7.47;;;6.97;;
5876;SDS011;2964;42.144;24.730;2023-05-10T08:17:38;7.27;;;6.77;;
5876;SDS011;2964;42.144;24.730;2023-05-10T08:20:06;8.17;;;7.53;;
5876;SDS011;2964;42.144;24.730;2023-05-10T08:22:34;8.20;;;7.40;;
5876;SDS011;2964;42.144;24.730;2023-05-10T08:25:00;7.37;;;6.67;;
5876;SDS011;2964;42.144;24.730;2023-05-10T08:27:27;7.10;;;6.70;;
5876;SDS011;2964;42.144;24.730;2023-05-10T08:29:54;7.33;;;6.80;;
5876;SDS011;2964;42.144;24.730;2023-05-10T08:32:21;7.70;;;7.07;;
5876;SDS011;2964;42.144;24.730;2023-05-10T08:34:47;7.33;;;6.83;;
5876;SDS011;2964;42.144;24.730;2023-05-10T08:37:15;9.07;;;7.67;;
5876;SDS011;2964;42.144;24.730;2023-05-10T08:39:42;6.97;;;6.53;;
5876;SDS011;2964;42.144;24.730;2023-05-10T08:42:10;7.33;;;6.93;;
5876;SDS011;2964;42.144;24.730;2023-05-10T08:44:38;6.93;;;6.43;;
5876;SDS011;2964;42.144;24.730;2023-05-10T08:47:06;8.40;;;6.10;;
5876;SDS011;2964;42.144;24.730;2023-05-10T08:49:33;6.23;;;5.83;;
5876;SDS011;2964;42.144;24.730;2023-05-10T08:52:01;7.20;;;6.53;;
5876;SDS011;2964;42.144;24.730;2023-05-10T08:54:32;6.97;;;6.43;;
5876;SDS011;2964;42.144;24.730;2023-05-10T08:56:59;6.70;;;6.20;;
5876;SDS011;2964;42.144;24.730;2023-05-10T08:59:27;8.17;;;6.73;;
5876;SDS011;2964;42.144;24.730;2023-05-10T09:01:53;7.27;;;6.67;;
5876;SDS011;2964;42.144;24.730;2023-05-10T09:04:23;6.73;;;6.13;;
5876;SDS011;2964;42.144;24.730;2023-05-10T09:06:50;6.27;;;5.87;;
5876;SDS011;2964;42.144;24.730;2023-05-10T09:09:17;7.13;;;6.60;;
5876;SDS011;2964;42.144;24.730;2023-05-10T09:11:46;10.27;;;7.07;;
5876;SDS011;2964;42.144;24.730;2023-05-10T09:14:13;8.23;;;7.20;;
5876;SDS011;2964;42.144;24.730;2023-05-10T09:16:41;7.43;;;7.03;;
5876;SDS011;2964;42.144;24.730;2023-05-10T09:19:08;8.13;;;7.53;;
5876;SDS011;2964;42.144;24.730;2023-05-10T09:21:35;7.13;;;6.63;;
5876;SDS011;2964;42.144;24.730;2023-05-10T09:24:03;7.13;;;6.43;;
5876;SDS011;2964;42.144;24.730;2023-05-10T09:26:31;8.13;;;7.43;;
5876;SDS011;2964;42.144;24.730;2023-05-10T09:28:59;7.97;;;7.30;;
5876;SDS011;2964;42.144;24.730;2023-05-10T09:31:43;7.80;;;7.10;;
5876;SDS011;2964;42.144;24.730;2023-05-10T09:34:11;6.83;;;6.10;;
5876;SDS011;2964;42.144;24.730;2023-05-10T09:36:50;8.23;;;7.70;;
5876;SDS011;2964;42.144;24.730;2023-05-10T09:39:17;8.80;;;6.80;;
5876;SDS011;2964;42.144;24.730;2023-05-10T09:41:44;7.27;;;6.70;;
5876;SDS011;2964;42.144;24.730;2023-05-10T09:44:14;7.53;;;6.87;;
5876;SDS011;2964;42.144;24.730;2023-05-10T09:46:48;7.17;;;6.77;;
5876;SDS011;2964;42.144;24.730;2023-05-10T09:49:15;6.73;;;6.37;;
5876;SDS011;2964;42.144;24.730;2023-05-10T09:51:42;7.77;;;7.07;;
5876;SDS011;2964;42.144;24.730;2023-05-10T09:54:09;7.23;;;6.63;;
5876;SDS011;2964;42.144;24.730;2023-05-10T09:56:37;6.87;;;6.47;;
5876;SDS011;2964;42.144;24.730;2023-05-10T09:59:05;7.30;;;6.30;;
5876;SDS011;2964;42.144;24.730;2023-05-10T10:01:35;6.43;;;6.13;;
5876;SDS011;2964;42.144;24.730;2023-05-10T10:04:02;7.07;;;6.47;;
5876;SDS011;2964;42.144;24.730;2023-05-10T10:06:34;6.37;;;6.07;;
5876;SDS011;2964;42.144;24.730;2023-05-10T10:09:02;7.13;;;6.53;;
5876;SDS011;2964;42.144;24.730;2023-05-10T10:11:29;7.37;;;6.73;;
5876;SDS011;2964;42.144;24.730;2023-05-10T10:13:56;7.70;;;6.87;;
5876;SDS011;2964;42.144;24.730;2023-05-10T10:16:23;7.30;;;6.77;;
5876;SDS011;2964;42.144;24.730;2023-05-10T10:18:52;7.97;;;7.27;;
5876;SDS011;2964;42.144;24.730;2023-05-10T10:21:19;6.87;;;6.40;;
5876;SDS011;2964;42.144;24.730;2023-05-10T10:23:46;6.73;;;6.40;;
5876;SDS011;2964;42.144;24.730;2023-05-10T10:26:13;6.07;;;5.80;;
5876;SDS011;2964;42.144;24.730;2023-05-10T10:28:46;6.60;;;6.00;;
5876;SDS011;2964;42.144;24.730;2023-05-10T10:31:20;6.70;;;6.40;;
5876;SDS011;2964;42.144;24.730;2023-05-10T10:34:00;7.43;;;6.93;;
5876;SDS011;2964;42.144;24.730;2023-05-10T10:36:29;7.17;;;6.77;;
5876;SDS011;2964;42.144;24.730;2023-05-10T10:38:58;7.63;;;7.07;;
5876;SDS011;2964;42.144;24.730;2023-05-10T10:41:27;8.13;;;7.33;;
5876;SDS011;2964;42.144;24.730;2023-05-10T10:46:59;7.90;;;5.83;;
5876;SDS011;2964;42.144;24.730;2023-05-10T10:49:30;7.57;;;6.97;;
5876;SDS011;2964;42.144;24.730;2023-05-10T10:52:12;8.13;;;7.37;;
5876;SDS011;2964;42.144;24.730;2023-05-10T10:54:53;8.17;;;7.70;;
5876;SDS011;2964;42.144;24.730;2023-05-10T10:57:24;7.97;;;7.57;;
5876;SDS011;2964;42.144;24.730;2023-05-10T10:59:51;8.20;;;6.30;;
5876;SDS011;2964;42.144;24.730;2023-05-10T11:05:25;7.40;;;6.87;;
5876;SDS011;2964;42.144;24.730;2023-05-10T11:08:10;7.57;;;7.10;;
5876;SDS011;2964;42.144;24.730;2023-05-10T11:10:49;7.20;;;6.53;;
5876;SDS011;2964;42.144;24.730;2023-05-10T11:13:21;7.20;;;6.70;;
5876;SDS011;2964;42.144;24.730;2023-05-10T11:15:53;7.23;;;6.83;;
5876;SDS011;2964;42.144;24.730;2023-05-10T11:18:23;7.67;;;7.00;;
5876;SDS011;2964;42.144;24.730;2023-05-10T11:20:52;8.07;;;7.50;;
5876;SDS011;2964;42.144;24.730;2023-05-10T11:23:23;7.43;;;6.90;;
5876;SDS011;2964;42.144;24.730;2023-05-10T11:25:50;8.37;;;7.97;;
5876;SDS011;2964;42.144;24.730;2023-05-10T11:28:17;7.10;;;6.73;;
5876;SDS011;2964;42.144;24.730;2023-05-10T11:30:45;7.40;;;6.80;;
5876;SDS011;2964;42.144;24.730;2023-05-10T11:33:15;7.20;;;6.80;;
5876;SDS011;2964;42.144;24.730;2023-05-10T11:35:43;6.43;;;6.10;;
5876;SDS011;2964;42.144;24.730;2023-05-10T11:38:11;8.10;;;7.50;;
5876;SDS011;2964;42.144;24.730;2023-05-10T11:40:41;8.17;;;7.53;;
5876;SDS011;2964;42.144;24.730;2023-05-10T11:43:08;6.33;;;5.93;;
5876;SDS011;2964;42.144;24.730;2023-05-10T11:45:36;6.50;;;5.90;;
5876;SDS011;2964;42.144;24.730;2023-05-10T11:48:03;6.00;;;5.70;;
5876;SDS011;2964;42.144;24.730;2023-05-10T11:50:30;8.40;;;7.53;;
5876;SDS011;2964;42.144;24.730;2023-05-10T11:52:57;7.57;;;6.97;;
5876;SDS011;2964;42.144;24.730;2023-05-10T11:55:26;5.93;;;5.53;;
5876;SDS011;2964;42.144;24.730;2023-05-10T11:57:52;5.97;;;5.77;;
5876;SDS011;2964;42.144;24.730;2023-05-10T12:00:19;6.67;;;6.27;;
5876;SDS011;2964;42.144;24.730;2023-05-10T12:02:46;6.93;;;6.53;;
5876;SDS011;2964;42.144;24.730;2023-05-10T12:05:14;6.97;;;6.67;;
5876;SDS011;2964;42.144;24.730;2023-05-10T12:07:40;7.57;;;7.13;;
5876;SDS011;2964;42.144;24.730;2023-05-10T12:10:08;7.77;;;7.10;;
5876;SDS011;2964;42.144;24.730;2023-05-10T12:12:39;7.93;;;7.13;;
5876;SDS011;2964;42.144;24.730;2023-05-10T12:15:10;7.40;;;7.07;;
5876;SDS011;2964;42.144;24.730;2023-05-10T12:17:37;7.23;;;6.77;;
5876;SDS011;2964;42.144;24.730;2023-05-10T12:20:18;7.47;;;7.17;;
5876;SDS011;2964;42.144;24.730;2023-05-10T12:22:47;8.33;;;6.27;;
5876;SDS011;2964;42.144;24.730;2023-05-10T12:25:15;8.03;;;7.43;;
5876;SDS011;2964;42.144;24.730;2023-05-10T12:27:49;6.90;;;6.50;;
5876;SDS011;2964;42.144;24.730;2023-05-10T12:30:20;7.60;;;7.13;;
5876;SDS011;2964;42.144;24.730;2023-05-10T12:32:48;7.17;;;6.77;;
5876;SDS011;2964;42.144;24.730;2023-05-10T12:35:15;7.73;;;7.27;;
5876;SDS011;2964;42.144;24.730;2023-05-10T12:37:42;7.43;;;7.03;;
5876;SDS011;2964;42.144;24.730;2023-05-10T12:40:10;7.23;;;6.83;;
5876;SDS011;2964;42.144;24.730;2023-05-10T12:42:38;7.70;;;7.30;;
5876;SDS011;2964;42.144;24.730;2023-05-10T12:45:07;8.30;;;7.67;;
5876;SDS011;2964;42.144;24.730;2023-05-10T12:47:34;7.63;;;7.23;;
5876;SDS011;2964;42.144;24.730;2023-05-10T12:50:01;8.03;;;7.63;;
5876;SDS011;2964;42.144;24.730;2023-05-10T12:52:28;8.40;;;7.57;;
5876;SDS011;2964;42.144;24.730;2023-05-10T12:54:56;8.03;;;7.63;;
5876;SDS011;2964;42.144;24.730;2023-05-10T12:57:23;8.03;;;7.50;;
5876;SDS011;2964;42.144;24.730;2023-05-10T12:59:50;9.80;;;8.90;;
5876;SDS011;2964;42.144;24.730;2023-05-10T13:02:18;8.20;;;7.60;;
5876;SDS011;2964;42.144;24.730;2023-05-10T13:04:46;9.73;;;9.13;;
5876;SDS011;2964;42.144;24.730;2023-05-10T13:07:12;9.47;;;8.73;;
5876;SDS011;2964;42.144;24.730;2023-05-10T13:09:39;8.20;;;7.80;;
5876;SDS011;2964;42.144;24.730;2023-05-10T13:12:06;9.07;;;8.47;;
5876;SDS011;2964;42.144;24.730;2023-05-10T13:14:32;7.57;;;7.00;;
5876;SDS011;2964;42.144;24.730;2023-05-10T13:16:59;8.20;;;7.60;;
5876;SDS011;2964;42.144;24.730;2023-05-10T13:19:27;8.30;;;7.90;;
5876;SDS011;2964;42.144;24.730;2023-05-10T13:21:54;9.33;;;8.63;;
5876;SDS011;2964;42.144;24.730;2023-05-10T13:24:20;12.23;;;9.53;;
5876;SDS011;2964;42.144;24.730;2023-05-10T13:26:47;7.37;;;6.97;;
5876;SDS011;2964;42.144;24.730;2023-05-10T13:29:14;8.13;;;7.60;;
5876;SDS011;2964;42.144;24.730;2023-05-10T13:31:43;8.10;;;7.70;;
5876;SDS011;2964;42.144;24.730;2023-05-10T13:34:09;8.20;;;7.80;;
5876;SDS011;2964;42.144;24.730;2023-05-10T13:36:37;10.07;;;9.23;;
5876;SDS011;2964;42.144;24.730;2023-05-10T13:39:04;9.10;;;8.50;;
5876;SDS011;2964;42.144;24.730;2023-05-10T13:41:31;8.33;;;7.87;;
5876;SDS011;2964;42.144;24.730;2023-05-10T13:43:58;8.07;;;7.47;;
5876;SDS011;2964;42.144;24.730;2023-05-10T13:46:24;8.80;;;8.17;;
5876;SDS011;2964;42.144;24.730;2023-05-10T13:48:51;8.77;;;8.27;;
5876;SDS011;2964;42.144;24.730;2023-05-10T13:51:18;9.03;;;8.47;;
5876;SDS011;2964;42.144;24.730;2023-05-10T13:53:46;9.20;;;8.70;;
5876;SDS011;2964;42.144;24.730;2023-05-10T13:59:04;9.67;;;9.17;;
5876;SDS011;2964;42.144;24.730;2023-05-10T14:01:30;9.77;;;9.13;;
5876;SDS011;2964;42.144;24.730;2023-05-10T14:03:57;10.80;;;9.90;;
5876;SDS011;2964;42.144;24.730;2023-05-10T14:06:24;10.43;;;9.87;;
5876;SDS011;2964;42.144;24.730;2023-05-10T14:08:53;11.33;;;10.53;;
5876;SDS011;2964;42.144;24.730;2023-05-10T14:11:20;10.00;;;9.30;;
5876;SDS011;2964;42.144;24.730;2023-05-10T14:13:46;11.10;;;10.47;;
5876;SDS011;2964;42.144;24.730;2023-05-10T14:16:13;10.67;;;9.97;;
5876;SDS011;2964;42.144;24.730;2023-05-10T14:18:40;8.53;;;8.03;;
5876;SDS011;2964;42.144;24.730;2023-05-10T14:21:06;8.67;;;8.10;;
5876;SDS011;2964;42.144;24.730;2023-05-10T14:23:33;9.30;;;8.83;;
5876;SDS011;2964;42.144;24.730;2023-05-10T14:26:01;8.93;;;8.43;;
5876;SDS011;2964;42.144;24.730;2023-05-10T14:28:28;8.53;;;7.93;;
5876;SDS011;2964;42.144;24.730;2023-05-10T14:30:54;8.60;;;8.10;;
5876;SDS011;2964;42.144;24.730;2023-05-10T14:33:21;9.20;;;8.40;;
5876;SDS011;2964;42.144;24.730;2023-05-10T14:35:48;10.07;;;9.13;;
5876;SDS011;2964;42.144;24.730;2023-05-10T14:38:15;10.10;;;9.40;;
5876;SDS011;2964;42.144;24.730;2023-05-10T14:40:41;9.07;;;8.37;;
5876;SDS011;2964;42.144;24.730;2023-05-10T14:43:09;10.20;;;9.27;;
5876;SDS011;2964;42.144;24.730;2023-05-10T14:45:36;8.37;;;7.83;;
5876;SDS011;2964;42.144;24.730;2023-05-10T14:48:03;8.63;;;7.87;;
5876;SDS011;2964;42.144;24.730;2023-05-10T14:50:30;8.63;;;8.13;;
5876;SDS011;2964;42.144;24.730;2023-05-10T14:56:01;8.10;;;7.70;;
5876;SDS011;2964;42.144;24.730;2023-05-10T14:58:29;9.40;;;8.77;;
5876;SDS011;2964;42.144;24.730;2023-05-10T15:00:56;7.13;;;6.73;;
5876;SDS011;2964;42.144;24.730;2023-05-10T15:03:23;7.80;;;7.13;;
5876;SDS011;2964;42.144;24.730;2023-05-10T15:05:49;8.00;;;7.40;;
5876;SDS011;2964;42.144;24.730;2023-05-10T15:08:16;8.83;;;8.30;;
5876;SDS011;2964;42.144;24.730;2023-05-10T15:10:43;8.10;;;7.60;;
5876;SDS011;2964;42.144;24.730;2023-05-10T15:13:10;8.13;;;7.57;;
5876;SDS011;2964;42.144;24.730;2023-05-10T15:15:38;7.97;;;7.47;;